Time;durP1;ratioP1;P1;durP2;ratioP2;P2;SDS_P1;SDS_P2;PMS_P1;PMS_P2;Temp;Humidity;BMP_temperature;BMP_pressure;BME280_temperature;BME280_humidity;BME280_pressure;Samples;Min_cycle;Max_cycle;Signal;HPM_P1;HPM_P2
2024/01/03 00:00:05;;;;;;;0.60;0.60;;;11.20;74.90;;;;;;5001598;28;20053;-61
2024/01/03 00:02:31;;;;;;;0.63;0.63;;;11.20;74.40;;;;;;5001249;28;20048;-61
2024/01/03 00:04:58;;;;;;;1.40;0.80;;;11.10;74.30;;;;;;4998051;28;20026;-61
2024/01/03 00:07:24;;;;;;;0.60;0.60;;;11.10;74.60;;;;;;5000498;28;20022;-61
2024/01/03 00:09:58;;;;;;;0.55;0.55;;;11.10;74.50;;;;;;5004660;28;20049;-61
2024/01/03 00:12:24;;;;;;;0.88;0.60;;;11.10;74.80;;;;;;5001357;28;20055;-61
2024/01/03 00:14:51;;;;;;;0.70;0.70;;;11.10;74.60;;;;;;5004817;28;20042;-61
2024/01/03 00:17:17;;;;;;;0.93;0.70;;;11.10;74.80;;;;;;4998795;28;20149;-60
2024/01/03 00:19:44;;;;;;;0.80;0.80;;;11.10;75.10;;;;;;5001310;28;20037;-62
2024/01/03 00:22:11;;;;;;;0.60;0.60;;;11.10;74.90;;;;;;5002544;28;20022;-61
2024/01/03 00:24:48;;;;;;;1.25;0.77;;;11.10;75.10;;;;;;5001942;28;20029;-61
2024/01/03 00:27:15;;;;;;;0.80;0.70;;;11.10;75.30;;;;;;5002832;28;20033;-61
2024/01/03 00:29:52;;;;;;;0.88;0.60;;;11.10;74.90;;;;;;5002577;28;20057;-61
2024/01/03 00:32:20;;;;;;;0.70;0.70;;;11.10;75.10;;;;;;4998605;28;20033;-61
2024/01/03 00:34:46;;;;;;;0.98;0.80;;;11.10;74.80;;;;;;4997094;28;20026;-61
2024/01/03 00:37:29;;;;;;;0.93;0.70;;;11.10;74.70;;;;;;5000596;28;20033;-62
2024/01/03 00:39:57;;;;;;;0.70;0.70;;;11.10;74.70;;;;;;4998860;28;20069;-61
2024/01/03 00:42:23;;;;;;;1.27;0.90;;;11.20;74.60;;;;;;5000634;28;20116;-62
2024/01/03 00:44:52;;;;;;;1.42;0.80;;;11.20;74.30;;;;;;4992675;28;20033;-63
2024/01/03 00:47:20;;;;;;;2.28;0.93;;;11.20;74.00;;;;;;4998697;28;20037;-62
2024/01/03 00:49:47;;;;;;;1.90;0.80;;;11.30;73.50;;;;;;5000175;28;20034;-62
2024/01/03 00:52:13;;;;;;;1.48;1.20;;;11.30;73.40;;;;;;5001520;28;20420;-62
2024/01/03 00:54:39;;;;;;;1.08;0.80;;;11.40;72.90;;;;;;4998979;28;20099;-61
2024/01/03 00:57:05;;;;;;;2.80;0.93;;;11.50;72.50;;;;;;4998922;28;20030;-63
2024/01/03 00:59:34;;;;;;;3.97;1.00;;;11.50;71.80;;;;;;4998720;28;20467;-61
2024/01/03 01:02:04;;;;;;;2.60;0.98;;;11.50;71.40;;;;;;4998717;28;20038;-62
2024/01/03 01:04:31;;;;;;;2.58;1.10;;;11.60;71.10;;;;;;5002475;28;20030;-62
2024/01/03 01:06:56;;;;;;;1.85;0.90;;;11.70;70.90;;;;;;5000749;28;20036;-63
2024/01/03 01:09:22;;;;;;;2.35;0.90;;;11.70;70.70;;;;;;5000959;28;20037;-62
2024/01/03 01:11:48;;;;;;;2.28;0.90;;;11.70;70.50;;;;;;5004627;28;20212;-62
2024/01/03 01:14:14;;;;;;;0.82;0.80;;;11.70;70.20;;;;;;5000712;28;20463;-61
2024/01/03 01:16:39;;;;;;;1.83;0.80;;;11.70;70.00;;;;;;5001122;28;20037;-63
2024/01/03 01:19:06;;;;;;;2.67;1.00;;;11.70;69.70;;;;;;5000129;28;20033;-61
2024/01/03 01:21:32;;;;;;;2.90;1.10;;;11.80;69.60;;;;;;4994324;28;20036;-61
2024/01/03 01:23:57;;;;;;;1.63;1.10;;;11.80;69.20;;;;;;4998624;28;20034;-61
2024/01/03 01:26:23;;;;;;;3.42;1.20;;;11.80;69.20;;;;;;4994979;28;20038;-60
2024/01/03 01:28:49;;;;;;;2.53;1.10;;;11.80;68.40;;;;;;4995804;28;20063;-61
2024/01/03 01:31:15;;;;;;;1.60;0.95;;;11.80;68.80;;;;;;4997793;28;20109;-61
2024/01/03 01:33:41;;;;;;;3.63;1.23;;;11.80;69.20;;;;;;4996336;28;20030;-60
2024/01/03 01:36:07;;;;;;;3.08;1.20;;;11.80;68.80;;;;;;4996216;28;20036;-61
2024/01/03 01:38:32;;;;;;;1.35;1.00;;;11.80;68.60;;;;;;5001057;28;20094;-61
2024/01/03 01:40:58;;;;;;;3.53;1.00;;;11.80;68.50;;;;;;4999565;28;20045;-61
2024/01/03 01:43:23;;;;;;;6.45;1.10;;;11.90;68.60;;;;;;4994856;28;20053;-62
2024/01/03 01:45:49;;;;;;;3.10;1.17;;;11.90;68.50;;;;;;4920455;28;20030;-61
2024/01/03 01:48:16;;;;;;;1.63;0.98;;;11.90;68.10;;;;;;5003182;28;20459;-61
2024/01/03 01:50:42;;;;;;;1.15;1.05;;;11.90;68.30;;;;;;4999518;28;20037;-61
2024/01/03 01:53:09;;;;;;;2.25;0.98;;;11.90;68.30;;;;;;4997720;28;20052;-61
2024/01/03 01:55:38;;;;;;;2.60;0.90;;;11.90;68.20;;;;;;5001290;28;20460;-60
2024/01/03 01:58:05;;;;;;;1.33;0.90;;;11.80;68.20;;;;;;4997394;28;20058;-60
2024/01/03 02:00:31;;;;;;;0.80;0.80;;;11.80;68.10;;;;;;4999225;28;20065;-61
2024/01/03 02:02:57;;;;;;;1.95;1.00;;;11.90;68.20;;;;;;4997600;28;20108;-62
2024/01/03 02:05:22;;;;;;;1.02;0.88;;;11.90;68.10;;;;;;5002137;28;20032;-61
2024/01/03 02:07:49;;;;;;;1.02;0.80;;;11.90;68.50;;;;;;5003695;28;20060;-61
2024/01/03 02:10:14;;;;;;;1.92;0.90;;;11.80;67.80;;;;;;5001287;28;20042;-62
2024/01/03 02:12:40;;;;;;;3.22;1.23;;;11.80;67.90;;;;;;5002266;28;20034;-61
2024/01/03 02:15:06;;;;;;;2.25;1.13;;;11.80;67.80;;;;;;5003204;28;20428;-60
2024/01/03 02:17:33;;;;;;;0.95;0.88;;;11.80;67.90;;;;;;4993916;28;20493;-61
2024/01/03 02:20:00;;;;;;;1.25;0.90;;;11.80;68.00;;;;;;5000725;28;20053;-60
2024/01/03 02:22:29;;;;;;;1.50;1.00;;;11.80;68.10;;;;;;5000802;28;20037;-60
2024/01/03 02:24:55;;;;;;;1.42;0.93;;;11.80;68.20;;;;;;5000681;28;20045;-61
2024/01/03 02:27:21;;;;;;;0.90;0.90;;;11.80;68.00;;;;;;4999113;28;20022;-61
2024/01/03 02:29:47;;;;;;;2.33;0.90;;;11.80;68.10;;;;;;4997998;28;20038;-61
2024/01/03 02:32:13;;;;;;;0.95;0.70;;;11.80;68.60;;;;;;5000060;28;20026;-61
2024/01/03 02:34:40;;;;;;;1.05;0.75;;;11.80;67.90;;;;;;5001539;28;20504;-61
2024/01/03 02:37:09;;;;;;;0.80;0.80;;;11.80;67.80;;;;;;5001689;28;20030;-61
2024/01/03 02:39:35;;;;;;;0.90;0.73;;;11.80;68.00;;;;;;5004185;28;20022;-60
2024/01/03 02:42:00;;;;;;;0.70;0.70;;;11.80;68.10;;;;;;5007539;28;20042;-61
2024/01/03 02:44:27;;;;;;;0.75;0.70;;;11.80;68.00;;;;;;5003572;28;20034;-61
2024/01/03 02:46:57;;;;;;;0.68;0.68;;;11.80;68.00;;;;;;4934131;28;20042;-60
2024/01/03 02:49:22;;;;;;;0.70;0.70;;;11.80;68.10;;;;;;5000639;28;20049;-60
2024/01/03 02:51:49;;;;;;;0.60;0.60;;;11.80;68.00;;;;;;5005372;28;20038;-62
2024/01/03 02:54:15;;;;;;;0.73;0.57;;;11.80;68.00;;;;;;5005790;28;20049;-60
2024/01/03 02:56:41;;;;;;;0.60;0.60;;;11.80;67.90;;;;;;5005340;28;20033;-61
2024/01/03 02:59:06;;;;;;;0.70;0.60;;;11.70;67.90;;;;;;4999618;28;20054;-61
2024/01/03 03:01:33;;;;;;;0.60;0.60;;;11.70;67.90;;;;;;5001812;28;20034;-60
2024/01/03 03:03:58;;;;;;;0.68;0.68;;;11.70;68.70;;;;;;5004927;28;20026;-61
2024/01/03 03:06:24;;;;;;;0.77;0.63;;;11.70;68.00;;;;;;5002769;28;20083;-61
2024/01/03 03:08:49;;;;;;;0.70;0.70;;;11.70;68.10;;;;;;5005947;28;20034;-61
2024/01/03 03:11:15;;;;;;;0.73;0.73;;;11.60;68.00;;;;;;5001987;28;20431;-62
2024/01/03 03:13:41;;;;;;;1.35;0.70;;;11.60;68.30;;;;;;5000452;28;20060;-61
2024/01/03 03:16:07;;;;;;;1.20;0.60;;;11.60;68.40;;;;;;5001670;28;20036;-62
2024/01/03 03:18:33;;;;;;;0.60;0.60;;;11.60;68.50;;;;;;5000623;28;20030;-62
2024/01/03 03:21:00;;;;;;;0.70;0.70;;;11.60;68.60;;;;;;5006299;28;20033;-61
2024/01/03 03:23:26;;;;;;;0.70;0.70;;;11.60;68.70;;;;;;4997123;28;20122;-60
2024/01/03 03:25:52;;;;;;;1.15;0.77;;;11.60;68.80;;;;;;5002861;28;20026;-60
2024/01/03 03:28:18;;;;;;;0.70;0.70;;;11.60;68.90;;;;;;5003635;28;20421;-60
2024/01/03 03:30:43;;;;;;;0.98;0.80;;;11.60;69.00;;;;;;4997656;28;20902;-60
2024/01/03 03:33:09;;;;;;;0.70;0.70;;;11.50;69.10;;;;;;5003117;28;20045;-61
2024/01/03 03:35:35;;;;;;;0.85;0.60;;;11.50;69.00;;;;;;5001100;28;20038;-61
2024/01/03 03:38:00;;;;;;;0.88;0.80;;;11.50;69.10;;;;;;4995958;28;20060;-60
2024/01/03 03:40:26;;;;;;;1.00;0.88;;;11.50;69.20;;;;;;5000389;28;20393;-61
2024/01/03 03:42:52;;;;;;;0.95;0.73;;;11.40;69.20;;;;;;4999972;28;20042;-61
2024/01/03 03:45:17;;;;;;;0.70;0.70;;;11.40;69.40;;;;;;4905216;28;20022;-62
2024/01/03 03:47:43;;;;;;;0.70;0.70;;;11.30;69.40;;;;;;4997098;28;20022;-61
2024/01/03 03:50:09;;;;;;;0.82;0.82;;;11.30;69.60;;;;;;5001737;28;20042;-60
2024/01/03 03:52:35;;;;;;;0.60;0.60;;;11.20;69.60;;;;;;5000184;28;20077;-59
2024/01/03 03:55:01;;;;;;;0.70;0.70;;;11.20;69.80;;;;;;5001004;28;20028;-60
2024/01/03 03:57:26;;;;;;;2.13;0.63;;;11.20;69.90;;;;;;5004074;28;20389;-60
2024/01/03 03:59:52;;;;;;;0.70;0.70;;;11.10;70.00;;;;;;5003636;28;20048;-60
2024/01/03 04:02:18;;;;;;;1.42;0.80;;;11.10;70.20;;;;;;5002093;28;20029;-61
2024/01/03 04:04:44;;;;;;;1.15;0.80;;;11.00;70.20;;;;;;5004073;28;20026;-61
2024/01/03 04:07:09;;;;;;;3.03;0.80;;;11.00;70.30;;;;;;5002873;28;20029;-62
2024/01/03 04:09:36;;;;;;;1.40;1.30;;;11.00;70.40;;;;;;5004173;28;20072;-61
2024/01/03 04:12:02;;;;;;;1.73;1.02;;;11.00;70.40;;;;;;4996058;28;20027;-61
2024/01/03 04:14:28;;;;;;;1.35;0.90;;;10.90;70.50;;;;;;5000895;28;20041;-60
2024/01/03 04:16:53;;;;;;;0.90;0.90;;;10.90;70.30;;;;;;5003416;28;20026;-60
2024/01/03 04:19:19;;;;;;;1.60;0.80;;;10.90;70.40;;;;;;5004225;28;20025;-60
2024/01/03 04:21:45;;;;;;;1.45;0.80;;;10.90;70.40;;;;;;5006107;28;20064;-61
2024/01/03 04:24:11;;;;;;;0.95;0.70;;;10.80;70.20;;;;;;4996270;28;20041;-61
2024/01/03 04:26:36;;;;;;;1.25;0.82;;;10.80;70.20;;;;;;5000509;28;20034;-61
2024/01/03 04:29:03;;;;;;;1.25;0.82;;;10.80;70.00;;;;;;5003253;28;20042;-61
2024/01/03 04:31:28;;;;;;;1.35;0.88;;;10.80;69.90;;;;;;4999899;28;20022;-61
2024/01/03 04:33:54;;;;;;;1.13;1.00;;;10.80;69.80;;;;;;4999620;28;20038;-61
2024/01/03 04:36:19;;;;;;;3.75;1.05;;;10.80;69.80;;;;;;5001204;28;20030;-61
2024/01/03 04:38:45;;;;;;;2.25;1.00;;;10.80;69.60;;;;;;4999753;28;20407;-62
2024/01/03 04:41:11;;;;;;;1.10;0.90;;;10.80;69.50;;;;;;4998942;28;20030;-62
2024/01/03 04:43:36;;;;;;;1.35;0.82;;;10.80;69.20;;;;;;4994226;28;20033;-61
2024/01/03 04:46:03;;;;;;;2.20;0.93;;;10.80;69.00;;;;;;4949400;28;20041;-61
2024/01/03 04:48:29;;;;;;;1.65;0.98;;;10.80;68.90;;;;;;4993586;28;20469;-61
2024/01/03 04:50:55;;;;;;;2.00;1.00;;;10.80;68.00;;;;;;5005270;28;20029;-60
2024/01/03 04:53:20;;;;;;;3.58;1.00;;;10.80;68.50;;;;;;5001687;28;20054;-62
2024/01/03 04:55:46;;;;;;;1.65;1.00;;;10.80;68.10;;;;;;4998472;28;20030;-61
2024/01/03 04:58:11;;;;;;;2.53;0.90;;;10.90;67.90;;;;;;5003454;28;20079;-61
2024/01/03 05:00:37;;;;;;;4.45;1.02;;;10.90;67.80;;;;;;5001967;28;20029;-61
2024/01/03 05:03:03;;;;;;;2.60;1.00;;;11.00;67.60;;;;;;4998882;28;20722;-62
2024/01/03 05:05:29;;;;;;;1.83;1.00;;;11.00;67.20;;;;;;5002990;28;20033;-61
2024/01/03 05:07:56;;;;;;;2.38;1.00;;;11.10;67.20;;;;;;4995328;28;20446;-60
2024/01/03 05:10:21;;;;;;;2.60;1.10;;;11.10;67.00;;;;;;4995579;28;20502;-60
2024/01/03 05:12:47;;;;;;;1.13;0.90;;;11.20;66.90;;;;;;4997960;28;20145;-62
2024/01/03 05:15:13;;;;;;;2.72;1.40;;;11.20;66.60;;;;;;5002559;28;20126;-60
2024/01/03 05:17:39;;;;;;;3.33;1.08;;;11.20;66.40;;;;;;5000082;28;20029;-61
2024/01/03 05:20:05;;;;;;;2.92;1.15;;;11.30;66.00;;;;;;4998417;28;20811;-60
2024/01/03 05:22:32;;;;;;;2.55;1.08;;;11.30;65.70;;;;;;5002367;28;20018;-60
2024/01/03 05:24:58;;;;;;;1.90;0.90;;;11.30;66.20;;;;;;4995644;28;20555;-62
2024/01/03 05:27:23;;;;;;;2.50;1.10;;;11.40;65.90;;;;;;5000335;28;20037;-60
2024/01/03 05:29:49;;;;;;;2.65;1.20;;;11.40;65.80;;;;;;4996422;28;20042;-61
2024/01/03 05:32:16;;;;;;;3.20;1.10;;;11.40;65.90;;;;;;4999084;28;20065;-61
2024/01/03 05:34:41;;;;;;;4.03;1.20;;;11.30;65.60;;;;;;4998277;28;20787;-60
2024/01/03 05:37:07;;;;;;;1.92;1.10;;;11.40;65.70;;;;;;5004234;28;20076;-60
2024/01/03 05:39:33;;;;;;;5.13;1.30;;;11.30;65.40;;;;;;4991778;28;20045;-61
2024/01/03 05:41:58;;;;;;;2.15;1.17;;;11.30;65.30;;;;;;4997717;28;20025;-60
2024/01/03 05:44:24;;;;;;;5.47;1.30;;;11.30;64.90;;;;;;4995891;28;20137;-62
2024/01/03 05:46:49;;;;;;;5.63;1.23;;;11.30;65.20;;;;;;4898427;28;20030;-61
2024/01/03 05:49:15;;;;;;;5.95;1.17;;;11.30;64.80;;;;;;4997268;28;20045;-60
2024/01/03 05:51:41;;;;;;;2.80;0.88;;;11.40;65.00;;;;;;5003330;28;20404;-60
2024/01/03 05:54:07;;;;;;;3.28;1.27;;;11.40;65.20;;;;;;4999658;28;20053;-60
2024/01/03 05:56:32;;;;;;;2.38;1.10;;;11.40;65.10;;;;;;5001470;28;20038;-61
2024/01/03 05:58:58;;;;;;;3.50;1.10;;;11.50;64.90;;;;;;4997220;28;20066;-59
2024/01/03 06:01:24;;;;;;;2.25;1.10;;;11.50;64.70;;;;;;5004406;28;20552;-61
2024/01/03 06:03:49;;;;;;;3.03;1.20;;;11.60;64.60;;;;;;5003905;28;20034;-60
2024/01/03 06:06:16;;;;;;;2.40;1.27;;;11.50;64.50;;;;;;5002193;28;20030;-62
2024/01/03 06:08:42;;;;;;;5.05;1.50;;;11.60;64.50;;;;;;5006702;28;20048;-61
2024/01/03 06:11:10;;;;;;;3.17;1.33;;;11.60;64.40;;;;;;5002392;28;20418;-61
2024/01/03 06:13:36;;;;;;;3.17;1.27;;;11.60;64.40;;;;;;4999639;28;20018;-61
2024/01/03 06:16:02;;;;;;;1.63;1.20;;;11.70;64.30;;;;;;5002620;28;20025;-62
2024/01/03 06:18:28;;;;;;;3.95;1.15;;;11.70;64.30;;;;;;5001938;28;20084;-61
2024/01/03 06:20:53;;;;;;;3.97;1.40;;;11.70;64.20;;;;;;5004096;28;20038;-61
2024/01/03 06:23:19;;;;;;;2.72;1.33;;;11.70;64.10;;;;;;5003983;28;20042;-60
2024/01/03 06:25:45;;;;;;;1.30;1.20;;;11.70;64.30;;;;;;5000358;28;20104;-61
2024/01/03 06:28:10;;;;;;;1.85;1.20;;;11.70;64.50;;;;;;5005886;28;20033;-60
2024/01/03 06:30:36;;;;;;;2.05;1.20;;;11.70;64.70;;;;;;4996977;28;20121;-61
2024/01/03 06:33:01;;;;;;;2.08;1.55;;;11.60;64.80;;;;;;5002922;28;20022;-61
2024/01/03 06:35:27;;;;;;;1.48;1.35;;;11.50;65.00;;;;;;5002605;28;20543;-61
2024/01/03 06:37:53;;;;;;;2.72;1.35;;;11.40;65.20;;;;;;5003481;28;20022;-60
2024/01/03 06:40:20;;;;;;;3.90;1.50;;;11.30;65.40;;;;;;5005425;28;20096;-61
2024/01/03 06:42:46;;;;;;;2.22;1.30;;;11.20;65.60;;;;;;5002851;28;20026;-60
2024/01/03 06:45:12;;;;;;;3.30;1.50;;;11.10;65.90;;;;;;4908371;28;20726;-60
2024/01/03 06:47:38;;;;;;;1.75;1.20;;;11.00;66.10;;;;;;5006003;28;20159;-61
2024/01/03 06:50:04;;;;;;;4.60;1.40;;;11.00;66.40;;;;;;5007097;28;20046;-61
2024/01/03 06:52:30;;;;;;;1.98;1.30;;;10.90;66.70;;;;;;5003523;28;20036;-60
2024/01/03 06:54:57;;;;;;;1.40;1.20;;;10.80;66.70;;;;;;5000957;28;20034;-60
2024/01/03 06:57:22;;;;;;;3.25;1.52;;;10.80;66.90;;;;;;5005586;28;20129;-61
2024/01/03 06:59:48;;;;;;;1.67;1.30;;;10.70;67.10;;;;;;5003246;28;20073;-61
2024/01/03 07:02:14;;;;;;;3.38;1.30;;;10.70;67.30;;;;;;4999238;28;20031;-59
2024/01/03 07:04:39;;;;;;;1.75;1.10;;;10.70;67.40;;;;;;5004053;28;20041;-60
2024/01/03 07:07:05;;;;;;;2.38;1.20;;;10.60;67.50;;;;;;5003500;28;20034;-61
2024/01/03 07:09:31;;;;;;;1.35;1.25;;;10.60;67.40;;;;;;5005484;28;20119;-60
2024/01/03 07:11:56;;;;;;;3.58;1.20;;;10.60;67.50;;;;;;5003484;28;20030;-60
2024/01/03 07:14:22;;;;;;;1.95;1.15;;;10.60;67.50;;;;;;4997120;28;20427;-60
2024/01/03 07:16:47;;;;;;;1.95;1.10;;;10.60;67.50;;;;;;5000673;28;20437;-60
2024/01/03 07:19:13;;;;;;;2.03;1.02;;;10.60;67.40;;;;;;5004860;28;20058;-61
2024/01/03 07:21:39;;;;;;;1.45;1.05;;;10.60;67.40;;;;;;4996519;28;20103;-61
2024/01/03 07:24:05;;;;;;;2.50;0.98;;;10.60;67.50;;;;;;4996313;28;20052;-60
2024/01/03 07:26:30;;;;;;;2.72;0.82;;;10.60;67.50;;;;;;4996347;28;20043;-61
2024/01/03 07:28:56;;;;;;;0.75;0.70;;;10.60;67.60;;;;;;5004163;28;20480;-61
2024/01/03 07:31:21;;;;;;;1.23;0.80;;;10.60;67.60;;;;;;5001862;28;20040;-63
2024/01/03 07:33:47;;;;;;;2.38;0.80;;;10.50;67.70;;;;;;4998660;28;20038;-62
2024/01/03 07:36:13;;;;;;;1.75;0.70;;;10.60;67.70;;;;;;5004948;28;20026;-63
2024/01/03 07:38:38;;;;;;;1.67;0.80;;;10.60;67.90;;;;;;5004666;28;20578;-63
2024/01/03 07:41:04;;;;;;;2.08;0.80;;;10.50;67.80;;;;;;5002281;28;20027;-62
2024/01/03 07:43:30;;;;;;;1.00;0.77;;;10.50;68.00;;;;;;5004149;28;20476;-64
2024/01/03 07:45:58;;;;;;;2.97;0.80;;;10.50;68.10;;;;;;4938229;28;20041;-61
2024/01/03 07:48:24;;;;;;;0.90;0.70;;;10.50;68.20;;;;;;5001862;28;20105;-63
2024/01/03 07:50:50;;;;;;;0.60;0.60;;;10.50;68.20;;;;;;4996264;28;20064;-61
2024/01/03 07:53:16;;;;;;;0.70;0.60;;;10.50;68.30;;;;;;4998565;28;20656;-62
2024/01/03 07:55:41;;;;;;;2.08;0.98;;;10.50;68.30;;;;;;5000713;28;20030;-62
2024/01/03 07:58:08;;;;;;;0.70;0.70;;;10.50;68.40;;;;;;5002504;28;20037;-62
2024/01/03 08:00:34;;;;;;;1.40;0.60;;;10.50;68.60;;;;;;5004918;28;20077;-63
2024/01/03 08:02:59;;;;;;;1.58;0.80;;;10.50;68.70;;;;;;5002135;28;20484;-63
2024/01/03 08:05:25;;;;;;;1.27;0.80;;;10.60;68.90;;;;;;4998982;28;20142;-62
2024/01/03 08:07:52;;;;;;;3.60;1.00;;;10.60;69.10;;;;;;5003393;28;20045;-61
2024/01/03 08:10:18;;;;;;;1.67;1.08;;;10.60;69.10;;;;;;5003862;28;20034;-64
2024/01/03 08:12:44;;;;;;;1.75;0.70;;;10.60;69.30;;;;;;5004732;28;20041;-62
2024/01/03 08:15:10;;;;;;;1.20;0.93;;;10.70;69.50;;;;;;5004353;28;20212;-62
2024/01/03 08:17:35;;;;;;;2.42;0.90;;;10.70;69.80;;;;;;5004137;28;20089;-63
2024/01/03 08:20:01;;;;;;;2.15;1.00;;;10.70;69.80;;;;;;5005952;28;20033;-61
2024/01/03 08:22:27;;;;;;;1.45;0.82;;;10.80;69.60;;;;;;5004663;28;20029;-62
2024/01/03 08:24:52;;;;;;;1.30;0.93;;;10.80;70.40;;;;;;4996092;28;20046;-62
2024/01/03 08:27:18;;;;;;;1.10;1.00;;;10.80;69.50;;;;;;5001619;28;20767;-62
2024/01/03 08:29:45;;;;;;;2.55;1.20;;;10.90;69.80;;;;;;5003905;28;20049;-62
2024/01/03 08:32:10;;;;;;;1.38;0.90;;;10.90;69.60;;;;;;5003011;28;20496;-61
2024/01/03 08:34:36;;;;;;;1.67;1.15;;;10.90;69.70;;;;;;4999334;28;20031;-62
2024/01/03 08:37:02;;;;;;;1.88;0.90;;;10.90;69.80;;;;;;4999986;28;20512;-62
2024/01/03 08:39:28;;;;;;;2.15;1.10;;;11.00;69.70;;;;;;5001292;28;20026;-61
2024/01/03 08:41:54;;;;;;;1.52;0.88;;;11.00;70.00;;;;;;4999546;28;20065;-63
2024/01/03 08:44:22;;;;;;;2.53;0.80;;;11.10;70.20;;;;;;5005691;28;20038;-63
2024/01/03 08:46:48;;;;;;;2.05;1.67;;;11.10;70.00;;;;;;4918655;28;20128;-61
2024/01/03 08:49:14;;;;;;;1.45;1.08;;;11.20;70.00;;;;;;4992678;28;20056;-62
2024/01/03 08:51:44;;;;;;;2.40;0.75;;;11.30;69.90;;;;;;5003879;28;20496;-62
2024/01/03 08:54:10;;;;;;;1.38;1.10;;;11.30;69.70;;;;;;5004998;28;20042;-62
2024/01/03 08:56:38;;;;;;;3.85;0.90;;;11.40;69.70;;;;;;5001268;28;20112;-61
2024/01/03 08:59:04;;;;;;;2.28;0.90;;;11.40;69.50;;;;;;5003679;28;20555;-62
2024/01/03 09:01:31;;;;;;;1.95;0.90;;;11.50;69.50;;;;;;5002032;28;20069;-62
2024/01/03 09:03:56;;;;;;;1.35;0.75;;;11.50;69.40;;;;;;5001692;28;20069;-63
2024/01/03 09:06:25;;;;;;;1.42;0.85;;;11.50;69.40;;;;;;5002576;28;20084;-63
2024/01/03 09:08:51;;;;;;;1.75;0.88;;;11.60;69.50;;;;;;5005150;28;20529;-62
2024/01/03 09:11:18;;;;;;;2.92;0.85;;;11.60;69.30;;;;;;5002665;28;20029;-63
2024/01/03 09:13:49;;;;;;;2.10;0.90;;;11.70;69.10;;;;;;5003961;28;20041;-61
2024/01/03 09:16:16;;;;;;;1.17;0.63;;;11.70;68.90;;;;;;5004705;28;20559;-62
2024/01/03 09:18:42;;;;;;;2.42;0.80;;;11.70;68.70;;;;;;5002692;28;20053;-64
2024/01/03 09:21:07;;;;;;;2.70;1.10;;;11.80;68.80;;;;;;5005501;28;20065;-61
2024/01/03 09:23:34;;;;;;;2.90;1.00;;;11.80;68.80;;;;;;4994758;28;20036;-62
2024/01/03 09:26:04;;;;;;;5.78;1.17;;;11.80;69.00;;;;;;4998300;28;20089;-62
2024/01/03 09:28:29;;;;;;;2.88;0.88;;;11.90;69.10;;;;;;4998369;28;20316;-62
2024/01/03 09:30:55;;;;;;;2.92;0.90;;;11.90;69.70;;;;;;5002213;28;20140;-62
2024/01/03 09:33:21;;;;;;;2.58;0.90;;;11.90;69.00;;;;;;5002875;28;20030;-62
2024/01/03 09:35:47;;;;;;;3.55;1.02;;;11.90;68.90;;;;;;5003184;28;20219;-62
2024/01/03 09:38:15;;;;;;;4.57;1.15;;;11.90;69.00;;;;;;4999974;28;20088;-62
2024/01/03 09:40:42;;;;;;;5.93;1.00;;;11.90;69.10;;;;;;4996508;28;20018;-62
2024/01/03 09:43:10;;;;;;;3.83;1.10;;;11.90;69.10;;;;;;5003011;28;20030;-62
2024/01/03 09:45:39;;;;;;;2.45;1.02;;;11.90;69.30;;;;;;4954962;28;20827;-62
2024/01/03 09:48:06;;;;;;;4.25;1.25;;;11.80;69.30;;;;;;4995538;28;20041;-63
2024/01/03 09:50:32;;;;;;;2.88;0.90;;;11.80;69.40;;;;;;5001327;28;20388;-62
2024/01/03 09:53:00;;;;;;;3.50;0.88;;;11.80;69.60;;;;;;5002014;28;20060;-63
2024/01/03 09:55:29;;;;;;;1.67;0.88;;;11.80;69.90;;;;;;5003016;28;20038;-63
2024/01/03 09:57:55;;;;;;;5.78;0.98;;;11.80;70.30;;;;;;5001428;28;20117;-63
2024/01/03 10:00:22;;;;;;;2.35;1.00;;;11.80;70.60;;;;;;5000296;28;20060;-62
2024/01/03 10:02:48;;;;;;;4.28;1.02;;;11.90;70.70;;;;;;4998317;28;20035;-61
2024/01/03 10:05:20;;;;;;;2.80;0.93;;;11.90;71.10;;;;;;5000585;28;20428;-62
2024/01/03 10:07:46;;;;;;;4.00;1.10;;;12.00;71.00;;;;;;5001928;28;20049;-61
2024/01/03 10:10:12;;;;;;;2.53;0.82;;;12.20;70.70;;;;;;5002205;28;20037;-61
2024/01/03 10:12:38;;;;;;;3.75;0.80;;;12.30;70.50;;;;;;5001798;28;20112;-62
2024/01/03 10:15:16;;;;;;;4.03;1.00;;;12.40;69.90;;;;;;4999782;28;20116;-63
2024/01/03 10:17:45;;;;;;;2.20;1.08;;;12.60;69.60;;;;;;4998823;28;20793;-62
2024/01/03 10:20:27;;;;;;;2.90;0.95;;;12.70;69.60;;;;;;5004966;28;20485;-63
2024/01/03 10:23:06;;;;;;;2.95;0.80;;;12.90;68.60;;;;;;5001559;28;20471;-62
2024/01/03 10:25:32;;;;;;;2.72;1.10;;;13.00;68.40;;;;;;5001376;28;20486;-63
2024/01/03 10:28:05;;;;;;;3.83;1.20;;;13.10;67.90;;;;;;5001344;28;20032;-62
2024/01/03 10:30:32;;;;;;;;;;;13.20;67.00;;;;;;5000323;28;20037;-62
2024/01/03 10:33:02;;;;;;;3.85;1.17;;;13.20;66.80;;;;;;5000514;28;19914;-62
2024/01/03 10:35:32;;;;;;;3.45;1.10;;;13.20;66.50;;;;;;4999477;28;20029;-63
2024/01/03 10:38:00;;;;;;;2.67;0.80;;;13.20;65.50;;;;;;4998462;28;20036;-63
2024/01/03 10:40:45;;;;;;;2.63;0.93;;;13.20;65.80;;;;;;5000808;28;20029;-63
2024/01/03 10:43:11;;;;;;;2.90;1.00;;;13.10;65.20;;;;;;4997775;28;20048;-63
2024/01/03 10:45:43;;;;;;;1.52;0.85;;;13.20;65.50;;;;;;4997908;28;20042;-62
2024/01/03 10:48:08;;;;;;;2.45;0.80;;;13.00;65.40;;;;;;5000007;28;20034;-63
2024/01/03 10:50:34;;;;;;;2.60;1.20;;;12.90;65.60;;;;;;5005244;28;20547;-64
2024/01/03 10:53:07;;;;;;;4.32;1.92;;;12.90;65.60;;;;;;5005969;28;20103;-63
2024/01/03 10:55:37;;;;;;;4.18;1.42;;;12.80;65.80;;;;;;5003561;28;20030;-62
2024/01/03 10:58:14;;;;;;;3.75;1.20;;;12.80;66.00;;;;;;5003107;28;20468;-62
2024/01/03 11:00:58;;;;;;;1.70;0.90;;;12.70;65.80;;;;;;5000345;28;20030;-62
2024/01/03 11:03:37;;;;;;;2.50;1.02;;;12.70;66.00;;;;;;4998182;28;20037;-64
2024/01/03 11:06:19;;;;;;;2.17;0.90;;;12.70;65.70;;;;;;5005743;28;20034;-64
2024/01/03 11:08:49;;;;;;;2.00;0.98;;;12.60;65.70;;;;;;5005452;28;20108;-63
2024/01/03 11:11:48;;;;;;;2.08;0.80;;;12.60;65.70;;;;;;5007365;28;20037;-63
2024/01/03 11:14:17;;;;;;;3.50;0.80;;;12.50;65.80;;;;;;5002035;28;20046;-63
2024/01/03 11:16:43;;;;;;;5.22;1.17;;;12.50;65.90;;;;;;4997185;28;20176;-64
2024/01/03 11:19:09;;;;;;;6.55;1.10;;;12.50;66.00;;;;;;5001309;28;20428;-63
2024/01/03 11:21:35;;;;;;;2.45;0.88;;;12.50;65.90;;;;;;5001361;28;20121;-63
2024/01/03 11:24:09;;;;;;;2.28;0.80;;;12.50;65.40;;;;;;4999366;28;20133;-63
2024/01/03 11:26:53;;;;;;;2.85;0.95;;;12.60;65.40;;;;;;5003412;28;20030;-64
2024/01/03 11:29:43;;;;;;;3.37;0.80;;;12.60;65.10;;;;;;5001429;28;20080;-62
2024/01/03 11:32:29;;;;;;;2.47;0.85;;;12.70;65.20;;;;;;4998775;28;20276;-63
2024/01/03 11:34:55;;;;;;;3.28;0.65;;;12.70;64.90;;;;;;4996894;28;20034;-63
2024/01/03 11:37:24;;;;;;;2.65;1.20;;;12.70;65.50;;;;;;5004012;28;20045;-63
2024/01/03 11:39:52;;;;;;;2.67;0.90;;;12.80;64.70;;;;;;4997798;28;20029;-63
2024/01/03 11:42:21;;;;;;;4.50;0.75;;;12.90;63.70;;;;;;4997536;28;20038;-63
2024/01/03 11:45:12;;;;;;;9.40;1.00;;;12.90;64.30;;;;;;4930452;28;20041;-61
2024/01/03 11:47:42;;;;;;;3.70;0.90;;;13.00;63.90;;;;;;5001161;28;20033;-62
2024/01/03 11:50:09;;;;;;;2.60;0.80;;;13.00;63.90;;;;;;5001800;28;20053;-62
2024/01/03 11:52:36;;;;;;;2.45;0.80;;;13.10;63.90;;;;;;5001555;28;20031;-63
2024/01/03 11:55:07;;;;;;;6.88;2.42;;;13.10;64.00;;;;;;5001568;28;20527;-63
2024/01/03 11:57:40;;;;;;;4.75;1.92;;;13.20;64.00;;;;;;5002001;28;20034;-62
2024/01/03 12:00:07;;;;;;;3.53;1.93;;;13.10;63.50;;;;;;5001593;28;20057;-63
2024/01/03 12:02:32;;;;;;;3.78;1.70;;;13.20;63.80;;;;;;5004947;28;20046;-63
2024/01/03 12:05:05;;;;;;;4.45;1.35;;;13.20;63.80;;;;;;5006423;28;20084;-63
2024/01/03 12:07:34;;;;;;;2.53;0.98;;;13.10;63.50;;;;;;5002866;28;20082;-63
2024/01/03 12:10:01;;;;;;;3.03;1.13;;;13.10;63.40;;;;;;5006707;28;20442;-63
2024/01/03 12:12:27;;;;;;;3.17;1.00;;;13.10;63.50;;;;;;5005741;28;20080;-63
2024/01/03 12:14:53;;;;;;;3.65;1.20;;;13.10;63.50;;;;;;5000770;28;20457;-62
2024/01/03 12:17:33;;;;;;;2.78;1.05;;;13.10;63.60;;;;;;5005271;28;20037;-63
2024/01/03 12:20:13;;;;;;;5.55;1.52;;;13.20;63.10;;;;;;5004343;28;20514;-62
2024/01/03 12:22:39;;;;;;;4.57;1.35;;;13.20;63.40;;;;;;5003029;28;20022;-64
2024/01/03 12:25:05;;;;;;;3.08;0.93;;;13.20;63.70;;;;;;5001900;28;20036;-63
2024/01/03 12:27:32;;;;;;;2.63;1.20;;;13.30;63.20;;;;;;5003347;28;20117;-62
2024/01/03 12:30:15;;;;;;;6.95;3.67;;;13.40;62.80;;;;;;5000849;28;20145;-62
2024/01/03 12:32:41;;;;;;;3.20;1.42;;;13.40;62.10;;;;;;4996023;28;20026;-62
2024/01/03 12:35:08;;;;;;;4.32;1.40;;;13.40;61.90;;;;;;4997697;28;20481;-63
2024/01/03 12:37:33;;;;;;;2.63;1.08;;;13.50;61.60;;;;;;5001487;28;20377;-62
2024/01/03 12:39:59;;;;;;;4.45;1.25;;;13.50;61.50;;;;;;5005620;28;20779;-63
2024/01/03 12:42:25;;;;;;;4.35;1.02;;;13.50;60.80;;;;;;4998879;28;20074;-63
2024/01/03 12:44:51;;;;;;;6.88;1.40;;;13.50;60.50;;;;;;5001697;28;20065;-63
2024/01/03 12:47:17;;;;;;;3.83;1.08;;;13.60;60.30;;;;;;5001573;28;20103;-62